createdAt,value
2018-06-02T00:01:56.666Z,13.67
2018-06-02T00:11:58.158Z,15.27
2018-06-02T00:22:00.238Z,15.87
2018-06-02T00:32:01.614Z,14.83
2018-06-02T00:42:02.980Z,14.27
2018-06-02T00:52:04.316Z,14.10
2018-06-02T01:02:05.700Z,12.43
2018-06-02T01:12:07.031Z,16.23
2018-06-02T01:22:08.379Z,13.63
2018-06-02T01:32:09.739Z,16.67
2018-06-02T01:42:11.914Z,12.27
2018-06-02T01:52:13.273Z,13.47
2018-06-02T02:02:14.623Z,18.97
2018-06-02T02:12:15.985Z,14.43
2018-06-02T02:22:17.315Z,17.00
2018-06-02T02:32:18.642Z,12.83
2018-06-02T02:42:20.747Z,13.90
2018-06-02T02:52:22.065Z,14.60
2018-06-02T03:02:23.429Z,14.73
2018-06-02T03:12:24.781Z,14.17
2018-06-02T03:22:26.162Z,13.23
2018-06-02T03:32:27.520Z,11.83
2018-06-02T03:42:28.893Z,12.27
2018-06-02T03:52:30.264Z,14.03
2018-06-02T04:02:31.627Z,13.73
2018-06-02T04:12:32.939Z,14.37
2018-06-02T04:22:35.039Z,14.23
2018-06-02T04:32:36.562Z,9.03
2018-06-02T04:42:37.940Z,14.07
2018-06-02T04:52:40.042Z,10.87
2018-06-02T05:33:07.983Z,7.97
2018-06-02T05:43:10.096Z,8.27
2018-06-02T05:53:12.218Z,7.50
2018-06-02T06:03:14.300Z,8.40
2018-06-02T06:23:25.362Z,10.23
2018-06-02T06:33:26.678Z,6.40
2018-06-02T06:43:32.154Z,5.90
2018-06-02T06:53:33.502Z,7.00
2018-06-02T07:03:35.616Z,4.43
2018-06-02T07:33:51.415Z,6.35
2018-06-02T07:43:52.790Z,7.00
2018-06-02T07:53:54.189Z,4.40
2018-06-02T08:14:02.953Z,3.92
2018-06-02T08:24:04.435Z,4.93
2018-06-02T08:34:05.770Z,2.58
2018-06-02T08:44:07.157Z,5.18
2018-06-02T08:54:08.482Z,2.60
2018-06-02T09:04:09.837Z,6.55
2018-06-02T09:14:11.199Z,5.05
2018-06-02T09:24:13.435Z,4.68
2018-06-02T09:34:14.783Z,4.10
2018-06-02T09:44:16.141Z,4.20
2018-06-02T09:54:17.502Z,3.70
2018-06-02T10:04:18.820Z,6.87
2018-06-02T10:14:20.148Z,3.45
2018-06-02T10:24:21.480Z,3.17
2018-06-02T10:34:22.823Z,4.18
2018-06-02T10:44:24.180Z,3.78
2018-06-02T10:54:25.547Z,3.90
2018-06-02T11:04:26.902Z,6.03
2018-06-02T11:24:35.412Z,5.97
2018-06-02T11:34:36.798Z,5.47
2018-06-02T11:44:38.228Z,3.90
2018-06-02T11:54:39.578Z,5.07
2018-06-02T12:04:40.896Z,3.05
2018-06-02T12:14:42.255Z,3.45
2018-06-02T12:24:43.593Z,3.85
2018-06-02T12:34:44.971Z,4.30
2018-06-02T12:44:46.296Z,5.32
2018-06-02T12:54:48.539Z,5.80
2018-06-02T13:04:49.987Z,3.43
2018-06-02T13:14:51.334Z,4.83
2018-06-02T13:24:52.686Z,6.17
2018-06-02T13:34:54.038Z,5.30
2018-06-02T13:44:55.386Z,6.10
2018-06-02T13:54:57.280Z,4.30
2018-06-02T14:04:58.609Z,4.10
2018-06-02T14:45:22.587Z,6.37
2018-06-02T14:55:23.948Z,4.27
2018-06-02T15:15:33.183Z,3.87
2018-06-02T15:25:35.416Z,5.97
2018-06-02T15:35:36.767Z,4.87
2018-06-02T16:26:07.285Z,4.53
2018-06-02T16:36:08.597Z,4.30
2018-06-02T16:46:09.907Z,3.83
2018-06-02T16:56:11.374Z,4.03
2018-06-02T17:06:12.792Z,6.13
2018-06-02T17:16:14.181Z,4.20
2018-06-02T17:36:22.673Z,5.47
2018-06-02T17:46:24.782Z,5.10
2018-06-02T17:56:26.136Z,5.47
2018-06-02T18:06:27.528Z,4.63
2018-06-02T18:16:28.845Z,5.37
2018-06-02T18:26:35.866Z,7.13
2018-06-02T18:36:37.182Z,6.77
2018-06-02T18:46:38.499Z,8.43
2018-06-02T18:56:40.627Z,7.90
2018-06-02T19:16:48.696Z,4.77
2018-06-02T19:26:51.102Z,5.27
2018-06-02T19:46:58.870Z,11.97
2018-06-02T20:37:32.213Z,5.53
2018-06-02T20:47:34.292Z,5.07
2018-06-02T20:57:36.394Z,3.47
2018-06-02T21:07:37.742Z,3.30
2018-06-02T21:17:39.092Z,3.83
2018-06-02T21:27:40.464Z,4.57
2018-06-02T21:37:41.810Z,5.10
2018-06-02T21:47:43.923Z,4.80
2018-06-02T21:57:45.233Z,4.97
2018-06-02T22:07:46.547Z,3.73
2018-06-02T22:17:47.880Z,5.03
2018-06-02T22:48:03.014Z,4.67
2018-06-02T22:58:04.394Z,3.47
2018-06-02T23:08:05.739Z,6.40
2018-06-02T23:18:07.866Z,5.73
2018-06-02T23:28:10.082Z,6.40
2018-06-02T23:38:11.464Z,6.03
2018-06-02T23:48:12.809Z,12.63
2018-06-02T23:58:14.121Z,6.87
